Time;durP1;ratioP1;P1;durP2;ratioP2;P2;SDS_P1;SDS_P2;PMS_P1;PMS_P2;Temp;Humidity;BMP_temperature;BMP_pressure;BME280_temperature;BME280_humidity;BME280_pressure;Samples;Min_cycle;Max_cycle;Signal;HPM_P1;HPM_P2
2021/12/11 00:02:06;;;;;;;5.30;4.30;;;20.40;44.20;;;;;;4996311;28;20042;-58
2021/12/11 00:04:37;;;;;;;5.28;4.35;;;20.40;44.10;;;;;;4995988;28;20334;-58
2021/12/11 00:07:06;;;;;;;5.40;4.13;;;20.40;44.00;;;;;;4996284;28;20466;-58
2021/12/11 00:09:40;;;;;;;6.20;4.38;;;20.40;44.00;;;;;;4996784;28;20113;-58
2021/12/11 00:12:18;;;;;;;5.80;3.83;;;20.40;43.90;;;;;;4992605;28;20093;-58
2021/12/11 00:14:48;;;;;;;4.35;3.95;;;20.40;43.90;;;;;;4976425;28;20039;-59
2021/12/11 00:17:27;;;;;;;4.47;4.07;;;20.40;43.90;;;;;;4976843;28;20054;-58
2021/12/11 00:19:53;;;;;;;6.25;4.07;;;20.30;43.80;;;;;;4976950;28;20065;-59
2021/12/11 00:22:22;;;;;;;6.72;4.20;;;20.30;43.80;;;;;;4976963;28;20442;-58
2021/12/11 00:24:49;;;;;;;4.55;3.63;;;20.40;43.80;;;;;;4976558;28;20086;-59
2021/12/11 00:27:23;;;;;;;4.70;4.18;;;20.30;43.70;;;;;;4976221;28;20355;-59
2021/12/11 00:29:49;;;;;;;4.60;3.90;;;20.30;43.60;;;;;;4976798;28;20055;-58
2021/12/11 00:32:28;;;;;;;4.80;4.03;;;20.30;43.50;;;;;;4975188;28;20050;-58
2021/12/11 00:34:58;;;;;;;4.03;3.65;;;20.30;43.50;;;;;;4970337;28;20124;-58
2021/12/11 00:37:25;;;;;;;5.13;4.17;;;20.30;43.50;;;;;;4976737;28;20042;-58
2021/12/11 00:39:59;;;;;;;4.35;3.95;;;20.30;43.50;;;;;;4976119;28;20361;-58
2021/12/11 00:42:33;;;;;;;5.30;3.85;;;20.30;43.40;;;;;;4975927;28;20081;-58
2021/12/11 00:45:11;;;;;;;7.15;3.95;;;20.30;43.40;;;;;;4976380;28;20070;-58
2021/12/11 00:47:43;;;;;;;7.60;3.80;;;20.30;43.40;;;;;;4976378;28;20130;-58
2021/12/11 00:50:12;;;;;;;6.10;3.95;;;20.30;43.30;;;;;;4976022;28;20362;-58
2021/12/11 00:52:46;;;;;;;7.60;4.20;;;20.30;43.30;;;;;;4975757;28;20050;-58
2021/12/11 00:55:20;;;;;;;4.25;3.85;;;20.30;43.30;;;;;;4975543;28;20383;-58
2021/12/11 00:57:47;;;;;;;6.30;3.78;;;20.30;43.20;;;;;;4990706;28;20046;-58
2021/12/11 01:00:19;;;;;;;4.10;3.40;;;20.20;43.10;;;;;;4974537;28;20054;-58
2021/12/11 01:02:49;;;;;;;4.18;3.60;;;20.20;43.10;;;;;;4975586;28;20470;-58
2021/12/11 01:05:15;;;;;;;5.40;3.55;;;20.20;43.00;;;;;;4975443;28;20130;-58
2021/12/11 01:07:40;;;;;;;5.88;3.75;;;20.20;43.10;;;;;;4975513;28;20078;-58
2021/12/11 01:10:06;;;;;;;4.07;3.67;;;20.20;43.10;;;;;;4975777;28;20096;-58
2021/12/11 01:12:49;;;;;;;3.97;3.58;;;20.20;43.00;;;;;;4975446;28;20046;-58
2021/12/11 01:15:26;;;;;;;4.97;4.30;;;20.20;43.00;;;;;;4975968;28;20115;-58
2021/12/11 01:18:22;;;;;;;5.68;3.40;;;20.20;43.00;;;;;;4975432;28;20043;-58
2021/12/11 01:21:06;;;;;;;6.50;3.85;;;20.20;43.00;;;;;;4975065;28;20038;-58
2021/12/11 01:26:11;;;;;;;7.75;3.70;;;20.20;42.90;;;;;;4975148;28;20051;-58
2021/12/11 01:28:37;;;;;;;4.38;3.20;;;20.10;42.90;;;;;;4975316;28;20055;-58
2021/12/11 01:31:08;;;;;;;4.13;3.53;;;20.10;42.80;;;;;;4975146;28;20038;-58
2021/12/11 01:33:34;;;;;;;4.90;3.70;;;20.10;42.80;;;;;;4975861;28;20069;-58
2021/12/11 01:36:01;;;;;;;4.95;3.60;;;20.10;42.80;;;;;;4975080;28;20093;-58
2021/12/11 01:38:29;;;;;;;6.22;3.22;;;20.10;42.70;;;;;;4975491;28;20105;-58
2021/12/11 01:41:01;;;;;;;5.40;3.30;;;20.10;42.80;;;;;;4974947;28;20390;-58
2021/12/11 01:43:29;;;;;;;7.03;3.45;;;20.10;42.70;;;;;;4973471;28;20047;-58
2021/12/11 01:45:57;;;;;;;7.10;3.20;;;20.10;42.70;;;;;;4975390;28;20039;-58
2021/12/11 01:48:28;;;;;;;6.75;3.40;;;20.10;42.70;;;;;;4973691;28;20049;-58
2021/12/11 01:50:59;;;;;;;4.32;3.22;;;20.10;42.60;;;;;;4974917;28;20054;-59
2021/12/11 01:53:33;;;;;;;6.93;3.28;;;20.10;42.60;;;;;;4975374;28;20043;-58
2021/12/11 01:56:03;;;;;;;3.78;3.35;;;20.10;42.60;;;;;;4974764;28;20043;-59
2021/12/11 01:58:37;;;;;;;5.82;3.35;;;20.00;42.60;;;;;;4975329;28;20121;-58
2021/12/11 02:01:18;;;;;;;8.60;3.30;;;20.00;42.60;;;;;;4973887;28;20050;-58
2021/12/11 02:03:45;;;;;;;4.82;3.20;;;20.00;42.60;;;;;;4974744;28;20089;-58
2021/12/11 02:06:11;;;;;;;3.90;3.20;;;20.00;42.80;;;;;;4974759;28;20113;-58
2021/12/11 02:08:40;;;;;;;5.80;2.80;;;20.00;42.80;;;;;;4975173;28;20050;-58
2021/12/11 02:11:27;;;;;;;3.60;2.90;;;20.00;42.70;;;;;;4974701;28;20121;-58
2021/12/11 02:13:59;;;;;;;4.03;3.20;;;20.00;42.80;;;;;;4975256;28;20043;-58
2021/12/11 02:16:33;;;;;;;4.53;3.30;;;20.00;42.90;;;;;;4974625;28;20047;-58
2021/12/11 02:19:09;;;;;;;3.72;3.30;;;20.00;42.90;;;;;;4979495;28;20117;-59
2021/12/11 02:21:54;;;;;;;6.15;3.17;;;20.00;42.80;;;;;;4994139;28;20038;-59
2021/12/11 02:24:24;;;;;;;5.25;3.35;;;20.00;42.80;;;;;;4994214;28;20042;-58
2021/12/11 02:26:53;;;;;;;4.70;2.90;;;20.00;42.80;;;;;;4993798;28;20112;-58
2021/12/11 02:29:33;;;;;;;4.72;2.97;;;20.00;42.90;;;;;;4993661;28;20173;-58
2021/12/11 02:32:17;;;;;;;4.90;2.83;;;20.00;42.80;;;;;;4994324;28;20077;-58
2021/12/11 02:34:54;;;;;;;4.65;2.95;;;20.00;42.70;;;;;;4993893;28;20597;-58
2021/12/11 02:37:28;;;;;;;6.20;3.00;;;20.00;42.70;;;;;;4994384;28;20073;-58
2021/12/11 02:39:58;;;;;;;3.70;3.05;;;19.90;42.70;;;;;;4994346;28;20038;-58
2021/12/11 02:42:32;;;;;;;3.17;2.85;;;19.90;42.70;;;;;;4993985;28;20041;-58
2021/12/11 02:45:27;;;;;;;4.43;2.97;;;19.90;42.60;;;;;;4994169;28;20117;-58
2021/12/11 02:48:00;;;;;;;3.00;2.70;;;19.90;42.60;;;;;;4991849;28;20062;-58
2021/12/11 02:50:38;;;;;;;3.33;3.03;;;19.90;42.60;;;;;;4994068;28;20042;-58
2021/12/11 02:53:39;;;;;;;4.75;3.10;;;19.90;42.60;;;;;;4994443;28;20100;-59
2021/12/11 02:56:23;;;;;;;3.83;3.00;;;19.90;42.60;;;;;;4954143;28;20047;-59
2021/12/11 02:58:56;;;;;;;2.65;2.30;;;19.80;42.50;;;;;;4994502;28;20061;-59
2021/12/11 03:01:29;;;;;;;3.25;2.95;;;19.80;42.50;;;;;;4997504;28;20466;-59
2021/12/11 03:04:20;;;;;;;3.58;2.90;;;19.80;42.50;;;;;;4997352;28;20080;-58
2021/12/11 03:06:49;;;;;;;2.72;2.53;;;19.80;42.40;;;;;;4997356;28;20104;-58
2021/12/11 03:09:19;;;;;;;3.17;2.80;;;19.80;42.50;;;;;;4997211;28;20149;-58
2021/12/11 03:11:45;;;;;;;3.63;2.72;;;19.80;42.40;;;;;;5029366;28;20042;-58
2021/12/11 03:14:14;;;;;;;3.17;2.97;;;19.80;42.30;;;;;;4997143;28;20047;-58
2021/12/11 03:16:41;;;;;;;3.10;2.80;;;19.80;42.30;;;;;;4996821;28;20386;-58
2021/12/11 03:19:11;;;;;;;2.72;2.50;;;19.80;42.30;;;;;;4997627;28;20089;-58
2021/12/11 03:21:39;;;;;;;3.75;2.60;;;19.80;42.20;;;;;;4997271;28;20050;-58
2021/12/11 03:24:06;;;;;;;2.85;2.55;;;19.80;42.20;;;;;;4995695;28;20409;-58
2021/12/11 03:26:32;;;;;;;4.47;2.65;;;19.80;42.20;;;;;;4997355;28;20084;-58
2021/12/11 03:28:58;;;;;;;3.83;2.63;;;19.80;42.20;;;;;;4996971;28;20085;-58
2021/12/11 03:31:24;;;;;;;3.10;2.80;;;19.80;42.10;;;;;;4996973;28;20038;-58
2021/12/11 03:33:58;;;;;;;3.10;2.85;;;19.80;42.10;;;;;;4996826;28;20121;-59
2021/12/11 03:36:26;;;;;;;3.83;2.70;;;19.80;42.00;;;;;;4996021;28;20034;-58
2021/12/11 03:38:56;;;;;;;2.70;2.50;;;19.70;42.00;;;;;;5011756;28;20038;-59
2021/12/11 03:41:23;;;;;;;2.92;2.50;;;19.80;42.00;;;;;;4996715;28;20132;-59
2021/12/11 03:43:49;;;;;;;3.25;2.78;;;19.70;41.90;;;;;;4996109;28;20046;-59
2021/12/11 03:46:16;;;;;;;3.20;2.90;;;19.70;41.90;;;;;;5028710;28;20323;-59
2021/12/11 03:48:49;;;;;;;2.83;2.60;;;19.70;41.90;;;;;;4996568;28;20039;-58
2021/12/11 03:51:19;;;;;;;3.58;2.45;;;19.70;41.80;;;;;;4997057;28;20057;-59
2021/12/11 03:53:45;;;;;;;3.08;2.70;;;19.70;41.80;;;;;;4996546;28;20046;-58
2021/12/11 03:56:13;;;;;;;3.35;2.75;;;19.70;41.80;;;;;;4996417;28;20584;-59
2021/12/11 03:58:40;;;;;;;3.85;2.70;;;19.70;41.80;;;;;;4996391;28;20053;-58
2021/12/11 04:01:13;;;;;;;3.17;2.45;;;19.70;41.80;;;;;;4996359;28;20039;-59
2021/12/11 04:03:41;;;;;;;3.35;2.70;;;19.60;41.60;;;;;;4996248;28;20474;-58
2021/12/11 04:06:10;;;;;;;3.58;2.80;;;19.70;41.70;;;;;;4996024;28;20061;-58
2021/12/11 04:08:41;;;;;;;2.97;2.67;;;19.60;41.60;;;;;;4996213;28;20097;-58
2021/12/11 04:11:09;;;;;;;2.92;2.63;;;19.60;41.60;;;;;;4996017;28;20050;-58
2021/12/11 04:13:35;;;;;;;3.28;2.75;;;19.60;41.60;;;;;;4996142;28;20034;-58
2021/12/11 04:16:03;;;;;;;3.42;2.63;;;19.60;41.60;;;;;;4996053;28;20042;-58
2021/12/11 04:18:29;;;;;;;2.88;2.60;;;19.60;41.60;;;;;;4995258;28;20085;-58
2021/12/11 04:20:54;;;;;;;3.97;2.80;;;19.60;41.60;;;;;;4996484;28;20512;-58
2021/12/11 04:23:21;;;;;;;3.22;2.40;;;19.60;41.60;;;;;;4996586;28;20045;-58
2021/12/11 04:25:50;;;;;;;3.13;2.75;;;19.60;41.50;;;;;;5011105;28;20377;-58
2021/12/11 04:28:18;;;;;;;3.00;2.72;;;19.60;41.50;;;;;;4996236;28;20056;-59
2021/12/11 04:30:46;;;;;;;3.00;2.70;;;19.60;41.50;;;;;;4995757;28;20042;-58
2021/12/11 04:33:12;;;;;;;3.13;2.47;;;19.50;41.50;;;;;;4995369;28;20093;-58
2021/12/11 04:35:39;;;;;;;2.97;2.67;;;19.60;41.50;;;;;;4996204;28;20397;-58
2021/12/11 04:38:08;;;;;;;2.88;2.60;;;19.60;41.50;;;;;;4995937;28;20113;-58
2021/12/11 04:40:37;;;;;;;3.42;2.92;;;19.60;41.40;;;;;;4995593;28;20042;-58
2021/12/11 04:43:10;;;;;;;3.13;2.83;;;19.50;41.40;;;;;;4995554;28;20376;-59
2021/12/11 04:45:43;;;;;;;2.88;2.60;;;19.50;41.40;;;;;;4995288;28;20466;-58
2021/12/11 04:48:31;;;;;;;3.33;3.03;;;19.50;41.40;;;;;;4995518;28;20046;-59
2021/12/11 04:51:05;;;;;;;2.90;2.60;;;19.50;41.40;;;;;;4995461;28;20046;-58
2021/12/11 04:54:03;;;;;;;4.03;2.85;;;19.50;41.40;;;;;;4995384;28;20529;-58
2021/12/11 04:57:11;;;;;;;3.72;2.92;;;19.50;41.40;;;;;;4995845;28;20048;-58
2021/12/11 05:00:06;;;;;;;3.08;2.78;;;19.50;41.40;;;;;;4993996;28;20425;-58
2021/12/11 05:10:56;;;;;;;2.72;2.53;;;19.40;41.30;;;;;;4995775;28;20054;-58
2021/12/11 05:13:25;;;;;;;2.95;2.65;;;19.40;41.20;;;;;;4995020;28;20038;-60
2021/12/11 05:15:54;;;;;;;2.97;2.72;;;19.40;41.20;;;;;;4994898;28;20044;-58
2021/12/11 05:18:28;;;;;;;2.85;2.65;;;19.40;41.20;;;;;;4994259;28;20046;-58
2021/12/11 05:21:00;;;;;;;3.53;2.78;;;19.40;41.90;;;;;;4994936;28;20062;-58
2021/12/11 05:23:27;;;;;;;2.75;2.55;;;19.40;41.20;;;;;;4995118;28;20049;-58
2021/12/11 05:25:53;;;;;;;2.83;2.40;;;19.40;41.20;;;;;;4985875;28;20174;-58
2021/12/11 05:28:19;;;;;;;3.30;3.00;;;19.40;41.10;;;;;;4975344;28;20062;-58
2021/12/11 05:30:47;;;;;;;3.15;2.60;;;19.40;41.20;;;;;;4974122;28;20043;-58
2021/12/11 05:33:14;;;;;;;2.88;2.67;;;19.40;41.10;;;;;;4975782;28;20106;-58
2021/12/11 05:35:41;;;;;;;2.83;2.60;;;19.40;41.10;;;;;;4975637;28;20089;-58
2021/12/11 05:38:09;;;;;;;2.72;2.53;;;19.40;41.10;;;;;;4974798;28;20366;-58
2021/12/11 05:40:39;;;;;;;2.63;2.40;;;19.40;41.00;;;;;;4975584;28;20121;-58
2021/12/11 05:43:05;;;;;;;3.53;3.10;;;19.40;41.00;;;;;;4975487;28;20533;-58
2021/12/11 05:45:32;;;;;;;2.90;2.60;;;19.40;41.00;;;;;;4973374;28;20401;-58
2021/12/11 05:47:58;;;;;;;2.80;2.40;;;19.40;41.00;;;;;;4974982;28;20098;-58
2021/12/11 05:50:35;;;;;;;3.20;2.90;;;19.40;41.00;;;;;;4974614;28;20042;-58
2021/12/11 05:53:02;;;;;;;3.53;3.10;;;19.40;40.90;;;;;;4975452;28;20034;-58
2021/12/11 05:55:30;;;;;;;2.83;2.53;;;19.40;40.90;;;;;;4973626;28;20100;-58
2021/12/11 05:57:58;;;;;;;3.00;2.70;;;19.40;40.90;;;;;;4974861;28;20082;-58
2021/12/11 06:00:33;;;;;;;3.05;2.75;;;19.40;41.00;;;;;;4973560;28;20039;-58
2021/12/11 06:03:00;;;;;;;2.83;2.63;;;19.50;41.10;;;;;;4974764;28;20049;-58
2021/12/11 06:05:26;;;;;;;3.13;2.58;;;19.40;41.00;;;;;;4974692;28;20047;-58
2021/12/11 06:07:52;;;;;;;2.58;2.38;;;19.50;41.00;;;;;;4974581;28;20042;-58
2021/12/11 06:10:20;;;;;;;2.58;2.38;;;19.50;41.30;;;;;;4974322;28;20112;-58
2021/12/11 06:12:48;;;;;;;2.58;2.38;;;19.50;41.10;;;;;;4975203;28;20130;-58
2021/12/11 06:15:14;;;;;;;2.65;2.45;;;19.50;41.00;;;;;;4974602;28;20605;-58
2021/12/11 06:17:42;;;;;;;3.00;2.70;;;19.50;41.00;;;;;;4975187;28;20066;-58
2021/12/11 06:20:11;;;;;;;2.88;2.58;;;19.50;41.10;;;;;;4974871;28;20059;-59
2021/12/11 06:22:37;;;;;;;2.60;2.40;;;19.50;41.10;;;;;;4973436;28;20140;-59
2021/12/11 06:25:10;;;;;;;2.97;2.60;;;19.60;41.10;;;;;;4974939;28;20035;-59
2021/12/11 06:27:37;;;;;;;2.63;2.28;;;19.60;41.10;;;;;;4974442;28;20043;-59
2021/12/11 06:30:05;;;;;;;2.90;2.50;;;19.60;41.10;;;;;;4975083;28;20078;-59
2021/12/11 06:32:31;;;;;;;3.20;2.90;;;19.60;41.00;;;;;;4977519;28;20107;-59
2021/12/11 06:35:00;;;;;;;3.03;2.72;;;19.60;41.00;;;;;;4978459;28;20078;-59
2021/12/11 06:37:25;;;;;;;2.47;2.28;;;19.70;41.10;;;;;;4978638;28;20054;-59
2021/12/11 06:39:52;;;;;;;2.55;2.22;;;19.60;41.00;;;;;;4978395;28;20351;-59
2021/12/11 06:42:20;;;;;;;2.60;2.40;;;19.70;41.10;;;;;;4978356;28;20054;-59
2021/12/11 06:44:46;;;;;;;2.60;2.40;;;19.70;41.10;;;;;;4980556;28;20418;-59
2021/12/11 06:47:14;;;;;;;2.45;2.25;;;19.70;41.00;;;;;;4997978;28;20049;-59
2021/12/11 06:49:41;;;;;;;2.45;2.22;;;19.70;41.00;;;;;;4997450;28;20354;-59
2021/12/11 06:52:13;;;;;;;2.58;2.25;;;19.70;41.00;;;;;;4996437;28;20054;-59
2021/12/11 06:54:40;;;;;;;3.00;2.70;;;19.80;41.10;;;;;;4997569;28;20458;-59
2021/12/11 06:57:06;;;;;;;2.65;2.45;;;19.70;40.90;;;;;;4997515;28;20042;-59
2021/12/11 06:59:33;;;;;;;2.35;2.15;;;19.80;41.00;;;;;;4997498;28;20046;-59
2021/12/11 07:01:59;;;;;;;2.58;2.38;;;19.80;41.00;;;;;;4997485;28;20469;-59
2021/12/11 07:04:25;;;;;;;2.47;2.03;;;19.80;41.00;;;;;;4997478;28;20061;-59
2021/12/11 07:06:53;;;;;;;2.55;2.35;;;19.80;41.00;;;;;;4997847;28;20449;-59
2021/12/11 07:09:20;;;;;;;3.08;2.30;;;19.90;41.00;;;;;;4997008;28;20050;-59
2021/12/11 07:11:49;;;;;;;2.42;2.22;;;19.90;41.00;;;;;;4997322;28;20581;-59
2021/12/11 07:14:16;;;;;;;2.45;2.25;;;19.90;41.00;;;;;;4997454;28;20093;-59
2021/12/11 07:16:43;;;;;;;2.72;2.40;;;19.90;41.00;;;;;;4997681;28;20050;-60
2021/12/11 07:19:09;;;;;;;2.55;2.35;;;19.90;40.90;;;;;;4996894;28;20051;-59
2021/12/11 07:21:36;;;;;;;2.65;2.45;;;20.00;41.00;;;;;;4997089;28;20057;-59
2021/12/11 07:24:04;;;;;;;2.25;2.05;;;20.00;41.00;;;;;;4997690;28;20073;-59
2021/12/11 07:26:33;;;;;;;2.50;2.30;;;20.00;40.90;;;;;;4996622;28;20385;-59
2021/12/11 07:29:05;;;;;;;2.85;2.50;;;20.00;41.00;;;;;;4997471;28;20129;-59
2021/12/11 07:31:31;;;;;;;2.92;2.60;;;20.00;40.90;;;;;;4995798;28;20042;-59
2021/12/11 07:33:57;;;;;;;2.53;2.28;;;20.00;40.80;;;;;;4996548;28;20482;-59
2021/12/11 07:36:24;;;;;;;2.90;2.70;;;20.00;40.80;;;;;;4996730;28;20049;-60
2021/12/11 07:38:50;;;;;;;2.72;2.42;;;20.10;40.80;;;;;;4996988;28;20061;-59
2021/12/11 07:41:17;;;;;;;2.78;2.40;;;20.10;40.70;;;;;;4995617;28;20366;-59
2021/12/11 07:43:45;;;;;;;3.05;2.72;;;20.10;40.60;;;;;;4995458;28;20110;-59
2021/12/11 07:46:16;;;;;;;2.97;2.50;;;20.10;40.50;;;;;;4996552;28;20124;-59
2021/12/11 07:48:43;;;;;;;2.83;2.30;;;20.20;40.50;;;;;;4997207;28;20042;-59
2021/12/11 07:51:09;;;;;;;2.67;2.47;;;20.20;40.50;;;;;;4996384;28;20049;-59
2021/12/11 07:53:35;;;;;;;2.47;2.28;;;20.20;40.50;;;;;;4996542;28;20038;-59
2021/12/11 07:56:02;;;;;;;3.05;2.78;;;20.20;40.40;;;;;;4996957;28;20035;-59
2021/12/11 07:58:32;;;;;;;2.78;2.55;;;20.20;40.30;;;;;;4996164;28;20046;-59
2021/12/11 08:00:58;;;;;;;2.58;2.38;;;20.20;40.30;;;;;;4996383;28;20057;-59
2021/12/11 08:03:24;;;;;;;2.47;2.28;;;20.20;40.30;;;;;;4995014;28;20046;-59
2021/12/11 08:05:51;;;;;;;2.65;2.38;;;20.30;40.30;;;;;;4996297;28;20045;-59
2021/12/11 08:08:17;;;;;;;2.63;2.42;;;20.30;40.30;;;;;;4996229;28;20057;-59
2021/12/11 08:10:47;;;;;;;3.47;2.78;;;20.30;40.30;;;;;;4996224;28;20046;-59
2021/12/11 08:13:13;;;;;;;3.17;2.40;;;20.40;40.30;;;;;;4996302;28;20052;-60
2021/12/11 08:15:40;;;;;;;2.60;2.40;;;20.30;40.30;;;;;;4996070;28;20124;-60
2021/12/11 08:18:08;;;;;;;2.92;2.50;;;20.40;40.20;;;;;;4995342;28;20050;-60
2021/12/11 08:20:34;;;;;;;3.00;2.42;;;20.40;41.10;;;;;;4994893;28;20078;-59
2021/12/11 08:23:01;;;;;;;4.35;2.47;;;20.40;40.40;;;;;;4995869;28;20042;-59
2021/12/11 08:25:29;;;;;;;2.60;2.40;;;20.40;40.50;;;;;;4995751;28;20097;-59
2021/12/11 08:27:56;;;;;;;4.20;2.53;;;20.40;40.70;;;;;;4994646;28;20132;-59
2021/12/11 08:30:24;;;;;;;3.33;2.42;;;20.40;40.90;;;;;;4996010;28;20034;-60
2021/12/11 08:32:51;;;;;;;3.17;2.65;;;20.40;41.00;;;;;;4995804;28;20466;-60
2021/12/11 08:35:17;;;;;;;4.20;2.95;;;20.40;41.20;;;;;;4995719;28;20050;-60
2021/12/11 08:37:47;;;;;;;3.40;2.55;;;20.40;41.20;;;;;;4995394;28;20473;-60
2021/12/11 08:40:17;;;;;;;3.58;2.92;;;20.50;41.30;;;;;;4995899;28;20094;-59
2021/12/11 08:42:43;;;;;;;3.50;2.70;;;20.50;41.30;;;;;;4995658;28;20104;-59
2021/12/11 08:45:13;;;;;;;9.80;2.95;;;20.50;41.40;;;;;;4996049;28;20045;-59
2021/12/11 08:47:41;;;;;;;2.97;2.65;;;20.50;41.40;;;;;;4995550;28;20074;-59
2021/12/11 08:50:11;;;;;;;2.70;2.45;;;20.50;41.50;;;;;;4995455;28;20085;-59
2021/12/11 08:52:40;;;;;;;3.25;2.70;;;20.60;41.70;;;;;;4993882;28;20050;-59
2021/12/11 08:55:10;;;;;;;8.98;2.97;;;20.60;41.70;;;;;;4994852;28;20054;-59
2021/12/11 08:57:39;;;;;;;3.67;2.70;;;20.60;41.70;;;;;;4994925;28;20517;-60
2021/12/11 09:00:18;;;;;;;3.17;2.88;;;20.60;41.70;;;;;;4995519;28;20184;-60
2021/12/11 09:02:55;;;;;;;3.63;2.83;;;20.60;41.70;;;;;;4995245;28;20125;-59
2021/12/11 09:05:28;;;;;;;4.00;2.80;;;20.60;41.80;;;;;;4995268;28;20480;-62
2021/12/11 09:08:11;;;;;;;3.65;2.97;;;20.60;41.80;;;;;;4994985;28;20473;-61
2021/12/11 09:10:59;;;;;;;5.55;2.85;;;20.70;41.80;;;;;;4995972;28;20446;-60
2021/12/11 09:13:39;;;;;;;3.85;3.00;;;20.60;41.80;;;;;;4995394;28;20046;-60
2021/12/11 09:16:19;;;;;;;4.38;3.00;;;20.60;41.80;;;;;;4995347;28;20453;-60
2021/12/11 09:19:05;;;;;;;4.38;3.08;;;20.60;41.90;;;;;;4995040;28;20054;-60
2021/12/11 09:21:38;;;;;;;8.32;3.05;;;20.60;42.00;;;;;;4995420;28;20058;-61
2021/12/11 09:24:11;;;;;;;5.93;3.03;;;20.60;42.20;;;;;;4995268;28;20042;-59
2021/12/11 09:26:52;;;;;;;4.75;2.97;;;20.60;42.10;;;;;;4993702;28;20082;-60
2021/12/11 09:29:28;;;;;;;4.38;2.97;;;20.60;42.10;;;;;;4994115;28;20097;-59
2021/12/11 09:31:59;;;;;;;6.70;2.90;;;20.60;42.10;;;;;;4994763;28;20041;-60
2021/12/11 09:34:35;;;;;;;6.28;2.92;;;20.60;42.10;;;;;;4994584;28;20125;-60
2021/12/11 09:37:02;;;;;;;8.30;3.25;;;20.60;42.90;;;;;;4995214;28;20081;-60
2021/12/11 09:39:38;;;;;;;8.52;3.38;;;20.60;42.20;;;;;;4994891;28;20129;-60
2021/12/11 09:42:04;;;;;;;5.80;3.38;;;20.60;42.20;;;;;;4995097;28;20049;-59
2021/12/11 09:44:33;;;;;;;5.07;3.47;;;20.60;42.30;;;;;;4994452;28;20038;-60
2021/12/11 09:47:20;;;;;;;10.93;4.00;;;20.60;42.40;;;;;;4993329;28;20042;-60
2021/12/11 09:49:57;;;;;;;5.65;3.47;;;20.60;42.60;;;;;;4995300;28;20042;-60
2021/12/11 09:52:24;;;;;;;4.72;3.30;;;20.60;42.80;;;;;;4994660;28;20553;-61
2021/12/11 09:55:18;;;;;;;8.32;3.95;;;20.60;43.00;;;;;;4994478;28;20038;-61
2021/12/11 09:57:46;;;;;;;8.55;3.63;;;20.60;43.30;;;;;;4994962;28;20057;-60
2021/12/11 10:00:20;;;;;;;6.40;3.42;;;20.60;43.30;;;;;;4994305;28;20034;-60
2021/12/11 10:02:46;;;;;;;7.55;3.50;;;20.70;43.80;;;;;;4994057;28;20377;-60
2021/12/11 10:05:36;;;;;;;7.68;3.40;;;20.70;43.70;;;;;;4993941;28;20038;-60
2021/12/11 10:11:06;;;;;;;5.47;3.45;;;20.70;44.00;;;;;;4994823;28;20134;-61
2021/12/11 10:13:35;;;;;;;5.60;3.42;;;20.70;44.20;;;;;;4994003;28;20512;-60
2021/12/11 10:16:00;;;;;;;5.28;3.38;;;20.70;44.20;;;;;;4994200;28;20429;-60
2021/12/11 10:18:28;;;;;;;6.55;3.45;;;20.70;44.20;;;;;;4993535;28;20046;-60
2021/12/11 10:21:01;;;;;;;7.13;3.88;;;20.70;44.20;;;;;;4994748;28;20053;-61
2021/12/11 10:23:31;;;;;;;8.90;3.38;;;20.80;44.30;;;;;;4994002;28;20089;-62
2021/12/11 10:26:00;;;;;;;5.90;3.40;;;20.70;44.20;;;;;;4994034;28;20125;-61
2021/12/11 10:28:28;;;;;;;15.27;3.63;;;20.70;44.30;;;;;;4994073;28;20053;-62
2021/12/11 10:31:05;;;;;;;16.55;4.28;;;20.70;44.20;;;;;;4994001;28;20049;-61
2021/12/11 10:33:32;;;;;;;12.55;4.07;;;20.70;44.30;;;;;;4994220;28;20108;-61
2021/12/11 10:36:03;;;;;;;15.70;4.15;;;20.70;44.30;;;;;;4993979;28;20050;-61
2021/12/11 10:38:29;;;;;;;13.30;4.22;;;20.70;44.40;;;;;;4993944;28;20046;-61
2021/12/11 10:40:59;;;;;;;9.38;4.20;;;20.70;44.60;;;;;;4993930;28;20116;-61
2021/12/11 10:43:58;;;;;;;10.35;3.97;;;20.70;44.60;;;;;;4994313;28;20109;-61
2021/12/11 10:46:28;;;;;;;11.32;4.22;;;20.70;44.70;;;;;;4990049;28;20563;-61
2021/12/11 10:48:55;;;;;;;8.65;4.50;;;20.70;44.70;;;;;;4994186;28;20093;-61
2021/12/11 10:51:29;;;;;;;14.43;4.57;;;20.70;44.70;;;;;;4993911;28;20466;-61
2021/12/11 10:53:55;;;;;;;10.65;4.80;;;20.70;44.70;;;;;;4993931;28;20038;-61
2021/12/11 10:56:23;;;;;;;13.52;5.20;;;20.70;44.70;;;;;;4993893;28;20046;-61
2021/12/11 10:58:58;;;;;;;8.15;5.28;;;20.70;44.80;;;;;;4968415;28;20135;-60
2021/12/11 11:01:34;;;;;;;9.70;5.05;;;20.70;44.80;;;;;;4994041;28;20417;-61
2021/12/11 11:04:04;;;;;;;8.75;4.70;;;20.70;44.80;;;;;;4993794;28;20137;-60
2021/12/11 11:06:30;;;;;;;10.75;4.85;;;20.70;44.90;;;;;;4992613;28;20137;-60
2021/12/11 11:08:56;;;;;;;10.38;4.97;;;20.70;44.90;;;;;;4992365;28;20053;-60
2021/12/11 11:11:25;;;;;;;12.32;5.00;;;20.70;44.90;;;;;;4993756;28;20046;-60
2021/12/11 11:13:52;;;;;;;14.65;5.93;;;20.70;45.00;;;;;;4994227;28;20038;-60
2021/12/11 11:16:20;;;;;;;9.27;5.00;;;20.70;45.20;;;;;;4994203;28;20051;-60
2021/12/11 11:18:46;;;;;;;12.35;5.32;;;20.70;45.30;;;;;;4997486;28;20082;-60
2021/12/11 11:21:20;;;;;;;10.82;5.18;;;20.70;45.40;;;;;;4998030;28;20073;-60
2021/12/11 11:23:48;;;;;;;11.48;5.38;;;20.70;45.60;;;;;;4997167;28;20045;-60
2021/12/11 11:26:19;;;;;;;10.13;5.30;;;20.70;45.70;;;;;;4997110;28;20046;-60
2021/12/11 11:28:45;;;;;;;9.52;4.82;;;20.70;45.70;;;;;;4997212;28;20042;-60
2021/12/11 11:31:16;;;;;;;9.40;4.97;;;20.70;45.70;;;;;;4997213;28;20034;-60
2021/12/11 11:33:43;;;;;;;12.95;5.70;;;20.70;45.80;;;;;;4997185;28;20089;-60
2021/12/11 11:36:14;;;;;;;9.65;5.28;;;20.70;45.80;;;;;;4997007;28;20074;-60
2021/12/11 11:38:44;;;;;;;10.35;5.50;;;20.70;45.80;;;;;;4998047;28;20050;-61
2021/12/11 11:41:21;;;;;;;7.22;4.70;;;20.70;45.90;;;;;;4997354;28;20100;-61
2021/12/11 11:43:47;;;;;;;11.05;4.82;;;20.70;45.90;;;;;;4996847;28;20053;-63
2021/12/11 11:46:14;;;;;;;8.80;5.00;;;20.70;46.00;;;;;;4996690;28;20457;-64
2021/12/11 11:48:42;;;;;;;11.43;4.80;;;20.70;46.00;;;;;;4996821;28;20045;-63
2021/12/11 11:51:15;;;;;;;11.00;5.20;;;20.70;45.90;;;;;;4995435;28;20132;-63
2021/12/11 11:53:41;;;;;;;10.95;5.15;;;20.70;45.90;;;;;;4996735;28;20042;-64
2021/12/11 11:56:11;;;;;;;9.38;4.82;;;20.70;45.90;;;;;;4995568;28;20161;-63
2021/12/11 11:58:37;;;;;;;10.03;4.30;;;20.70;45.80;;;;;;4996645;28;20113;-64
2021/12/11 12:01:14;;;;;;;8.68;4.32;;;20.70;45.80;;;;;;4996505;28;20125;-63
2021/12/11 12:03:40;;;;;;;8.30;4.22;;;20.70;45.80;;;;;;4996931;28;20084;-63
2021/12/11 12:06:11;;;;;;;8.35;4.75;;;20.70;45.80;;;;;;4979351;28;20055;-61
2021/12/11 12:08:39;;;;;;;10.18;4.38;;;20.70;45.70;;;;;;4976925;28;20061;-63
2021/12/11 12:11:06;;;;;;;10.75;4.22;;;20.70;45.70;;;;;;4976008;28;20085;-63
2021/12/11 12:13:32;;;;;;;7.45;4.60;;;20.70;45.70;;;;;;4969789;28;20053;-62
2021/12/11 12:16:07;;;;;;;10.38;4.82;;;20.70;45.60;;;;;;4976435;28;20386;-62
2021/12/11 12:18:34;;;;;;;12.45;5.60;;;20.60;45.50;;;;;;4973549;28;20455;-62
2021/12/11 12:21:03;;;;;;;9.48;4.32;;;20.60;45.40;;;;;;4976706;28;20049;-63
2021/12/11 12:23:31;;;;;;;8.52;4.65;;;20.60;45.50;;;;;;4977068;28;20421;-63
2021/12/11 12:26:01;;;;;;;11.23;4.72;;;20.60;45.50;;;;;;4974079;28;20053;-62
2021/12/11 12:28:28;;;;;;;19.88;5.20;;;20.60;45.50;;;;;;4973432;28;20042;-63
2021/12/11 12:30:58;;;;;;;15.07;5.57;;;20.60;45.50;;;;;;4976537;28;20043;-62
2021/12/11 12:33:24;;;;;;;16.45;5.20;;;20.60;45.60;;;;;;4976833;28;20038;-62
2021/12/11 12:35:51;;;;;;;20.17;5.18;;;20.60;45.60;;;;;;4976462;28;20081;-62
2021/12/11 12:38:23;;;;;;;17.92;5.30;;;20.60;45.60;;;;;;4976389;28;20142;-62
2021/12/11 12:41:25;;;;;;;10.40;5.57;;;20.60;45.60;;;;;;4976957;28;20049;-63
2021/12/11 12:46:45;;;;;;;17.33;5.38;;;20.60;45.80;;;;;;4977159;28;20063;-63
2021/12/11 12:49:11;;;;;;;14.65;5.07;;;20.60;45.80;;;;;;4976765;28;20046;-63
2021/12/11 12:51:38;;;;;;;25.45;7.53;;;20.60;45.90;;;;;;4976044;28;20049;-63
2021/12/11 12:54:09;;;;;;;23.92;6.90;;;20.60;45.30;;;;;;4976140;28;20030;-62
2021/12/11 12:56:40;;;;;;;22.75;7.28;;;20.60;45.20;;;;;;4976215;28;20085;-61
2021/12/11 12:59:11;;;;;;;30.80;7.15;;;20.60;45.50;;;;;;4976109;28;20038;-62
2021/12/11 13:01:45;;;;;;;34.83;6.95;;;20.60;45.60;;;;;;4976506;28;20034;-63
2021/12/11 13:04:14;;;;;;;33.03;7.55;;;20.60;45.80;;;;;;4974918;28;20130;-62
2021/12/11 13:06:44;;;;;;;45.60;8.50;;;20.60;46.00;;;;;;4975184;28;20133;-63
2021/12/11 13:09:26;;;;;;;36.80;7.47;;;20.60;46.20;;;;;;4975928;28;20133;-63
2021/12/11 13:12:06;;;;;;;43.53;8.50;;;20.60;46.20;;;;;;4975900;28;20130;-62
2021/12/11 13:14:32;;;;;;;46.30;9.32;;;20.60;46.30;;;;;;4976318;28;20046;-62
2021/12/11 13:17:06;;;;;;;55.15;9.60;;;20.60;46.40;;;;;;4975765;28;20137;-63
2021/12/11 13:19:44;;;;;;;72.60;12.52;;;20.60;46.60;;;;;;4976232;28;20050;-62
2021/12/11 13:22:16;;;;;;;88.78;13.15;;;20.60;46.90;;;;;;4976205;28;20043;-62